createdAt,value
2017-09-28T00:00:22.767Z,0.00
2017-09-28T00:01:22.768Z,0.00
2017-09-28T00:02:22.766Z,0.00
2017-09-28T00:03:22.766Z,0.00
2017-09-28T00:04:22.765Z,0.00
2017-09-28T00:05:22.799Z,0.00
2017-09-28T00:06:22.765Z,0.00
2017-09-28T00:07:22.764Z,0.00
2017-09-28T00:08:22.763Z,0.00
2017-09-28T00:09:22.763Z,0.00
2017-09-28T00:10:22.764Z,0.00
2017-09-28T00:11:22.763Z,0.00
2017-09-28T00:12:22.763Z,0.00
2017-09-28T00:13:22.763Z,0.00
2017-09-28T00:14:22.761Z,0.00
2017-09-28T00:15:22.763Z,0.00
2017-09-28T00:16:22.761Z,0.00
2017-09-28T00:17:22.762Z,0.00
2017-09-28T00:18:22.761Z,0.00
2017-09-28T00:19:22.762Z,0.00
2017-09-28T00:20:22.760Z,0.00
2017-09-28T00:21:22.759Z,0.00
2017-09-28T00:22:22.759Z,0.00
2017-09-28T00:23:22.761Z,0.00
2017-09-28T00:24:22.759Z,0.00
2017-09-28T00:25:22.762Z,0.00
2017-09-28T00:26:22.758Z,0.00
2017-09-28T00:27:22.756Z,0.00
2017-09-28T00:28:22.756Z,0.00
2017-09-28T00:29:22.756Z,0.00
2017-09-28T00:30:22.756Z,0.00
2017-09-28T00:31:22.754Z,0.00
2017-09-28T00:32:22.755Z,0.00
2017-09-28T00:33:22.753Z,0.00
2017-09-28T00:34:22.752Z,0.00
2017-09-28T00:35:22.753Z,0.00
2017-09-28T00:36:22.751Z,0.00
2017-09-28T00:37:22.753Z,0.00
2017-09-28T00:38:22.751Z,0.00
2017-09-28T00:39:22.750Z,0.00
2017-09-28T00:40:22.751Z,0.00
2017-09-28T00:41:22.749Z,0.00
2017-09-28T00:42:22.750Z,0.00
2017-09-28T00:43:22.750Z,0.00
2017-09-28T00:44:22.747Z,0.00
2017-09-28T00:45:22.748Z,0.00
2017-09-28T00:46:22.747Z,0.00
2017-09-28T00:47:22.748Z,0.00
2017-09-28T00:48:22.747Z,0.00
2017-09-28T00:49:22.746Z,0.00
2017-09-28T00:50:22.744Z,0.00
2017-09-28T00:51:22.745Z,0.00
2017-09-28T00:52:22.743Z,0.00
2017-09-28T00:53:22.743Z,0.00
2017-09-28T00:54:22.743Z,0.00
2017-09-28T00:55:22.742Z,0.00
2017-09-28T00:56:22.746Z,0.00
2017-09-28T00:57:22.741Z,0.00
2017-09-28T00:58:22.739Z,0.00
2017-09-28T00:59:22.740Z,0.00
2017-09-28T01:00:22.739Z,0.00
2017-09-28T01:01:22.737Z,0.00
2017-09-28T01:02:22.747Z,0.00
2017-09-28T01:03:22.737Z,0.00
2017-09-28T01:04:22.734Z,0.00
2017-09-28T01:05:22.736Z,0.00
2017-09-28T01:06:22.735Z,0.00
2017-09-28T01:07:22.734Z,0.00
2017-09-28T01:08:22.733Z,0.00
2017-09-28T01:09:22.732Z,0.00
2017-09-28T01:10:22.738Z,0.00
2017-09-28T01:11:22.731Z,0.00
2017-09-28T01:12:22.730Z,0.00
2017-09-28T01:13:22.730Z,0.00
2017-09-28T01:14:22.730Z,0.00
2017-09-28T01:15:22.729Z,0.00
2017-09-28T01:16:22.727Z,0.00
2017-09-28T01:17:22.728Z,0.00
2017-09-28T01:18:22.729Z,0.00
2017-09-28T01:19:22.727Z,0.00
2017-09-28T01:20:22.726Z,0.00
2017-09-28T01:21:22.724Z,0.00
2017-09-28T01:22:22.724Z,0.00
2017-09-28T01:23:22.724Z,0.00
2017-09-28T01:24:22.722Z,0.00
2017-09-28T01:25:22.723Z,0.00
2017-09-28T01:26:22.722Z,0.00
2017-09-28T01:27:22.722Z,0.00
2017-09-28T01:28:22.721Z,0.00
2017-09-28T01:29:22.719Z,0.00
2017-09-28T01:30:22.719Z,0.00
2017-09-28T01:31:22.726Z,0.00
2017-09-28T01:32:22.717Z,0.00
2017-09-28T01:33:22.718Z,0.00
2017-09-28T01:34:22.717Z,0.00
2017-09-28T01:35:22.715Z,0.00
2017-09-28T01:36:22.715Z,0.00
2017-09-28T01:37:22.715Z,0.00
2017-09-28T01:38:22.713Z,0.00
2017-09-28T01:39:22.715Z,0.00
2017-09-28T01:40:22.712Z,0.00
2017-09-28T01:41:22.711Z,0.00
2017-09-28T01:42:22.711Z,0.00
2017-09-28T01:43:22.710Z,0.00
2017-09-28T01:44:22.710Z,0.00
2017-09-28T01:45:22.710Z,0.00
2017-09-28T01:46:22.709Z,0.00
2017-09-28T01:47:22.709Z,0.00
2017-09-28T01:48:22.708Z,0.00
2017-09-28T01:49:22.706Z,0.00
2017-09-28T01:50:22.709Z,0.00
2017-09-28T01:51:22.707Z,0.00
2017-09-28T01:52:22.704Z,0.00
2017-09-28T01:53:22.706Z,0.00
2017-09-28T01:54:22.703Z,0.00
2017-09-28T01:55:22.705Z,0.00
2017-09-28T01:56:22.703Z,0.00
2017-09-28T01:57:22.703Z,0.00
2017-09-28T01:58:22.708Z,0.00
2017-09-28T01:59:22.701Z,0.00
2017-09-28T02:00:22.700Z,0.00
2017-09-28T02:01:22.700Z,0.00
2017-09-28T02:02:22.700Z,0.00
2017-09-28T02:03:22.700Z,0.00
2017-09-28T02:04:22.699Z,0.00
2017-09-28T02:05:22.698Z,0.00
2017-09-28T02:06:22.698Z,0.00
2017-09-28T02:07:22.728Z,0.00
2017-09-28T02:08:22.696Z,0.00
2017-09-28T02:09:22.694Z,0.00
2017-09-28T02:10:22.695Z,0.00
2017-09-28T02:11:22.695Z,0.00
2017-09-28T02:12:22.693Z,0.00
2017-09-28T02:13:22.699Z,0.00
2017-09-28T02:14:22.693Z,0.00
2017-09-28T02:15:22.692Z,0.00
2017-09-28T02:16:22.691Z,0.00
2017-09-28T02:17:22.692Z,0.00
2017-09-28T02:18:22.694Z,0.00
2017-09-28T02:19:22.691Z,0.00
2017-09-28T02:20:22.689Z,0.00
2017-09-28T02:21:22.690Z,0.00
2017-09-28T02:22:22.689Z,0.00
2017-09-28T02:23:22.690Z,0.00
2017-09-28T02:24:22.688Z,0.00
2017-09-28T02:25:22.690Z,0.00
2017-09-28T02:26:22.688Z,0.00
2017-09-28T02:27:22.688Z,0.00
2017-09-28T02:28:22.686Z,0.00
2017-09-28T02:29:22.686Z,0.00
2017-09-28T02:30:22.718Z,0.00
2017-09-28T02:31:22.688Z,0.00
2017-09-28T02:32:22.684Z,0.00
2017-09-28T02:33:22.684Z,0.00
2017-09-28T02:34:22.683Z,0.00
2017-09-28T02:35:22.684Z,0.00
2017-09-28T02:36:22.682Z,0.00
2017-09-28T02:37:22.681Z,0.00
2017-09-28T02:38:22.681Z,0.00
2017-09-28T02:39:22.680Z,0.00
2017-09-28T02:40:22.680Z,0.00
2017-09-28T02:41:22.678Z,0.00
2017-09-28T02:42:22.680Z,0.00
2017-09-28T02:43:22.679Z,0.00
2017-09-28T02:44:22.679Z,0.00
2017-09-28T02:45:22.678Z,0.00
2017-09-28T02:46:22.679Z,0.00
2017-09-28T02:47:22.678Z,0.00
2017-09-28T02:48:22.676Z,0.00
2017-09-28T02:49:22.676Z,0.00
2017-09-28T02:50:22.676Z,0.00
2017-09-28T02:51:22.675Z,0.00
2017-09-28T02:52:22.675Z,0.00
2017-09-28T02:53:22.679Z,0.00
2017-09-28T02:54:22.675Z,0.00
2017-09-28T02:55:22.676Z,0.00
2017-09-28T02:56:22.674Z,0.00
2017-09-28T02:57:22.674Z,0.00
2017-09-28T02:58:22.672Z,0.00
2017-09-28T02:59:22.672Z,0.00
2017-09-28T03:00:22.671Z,0.00
2017-09-28T03:01:22.672Z,0.00
2017-09-28T03:02:22.671Z,0.00
2017-09-28T03:03:22.671Z,0.00
2017-09-28T03:04:22.671Z,0.00
2017-09-28T03:05:22.669Z,0.00
2017-09-28T03:06:22.672Z,0.00
2017-09-28T03:07:22.671Z,0.00
2017-09-28T03:08:22.670Z,0.00
2017-09-28T03:09:22.670Z,0.00
2017-09-28T03:10:22.669Z,0.00
2017-09-28T03:11:22.669Z,0.00
2017-09-28T03:12:22.666Z,0.00
2017-09-28T03:13:22.667Z,0.00
2017-09-28T03:14:22.668Z,0.00
2017-09-28T03:15:22.668Z,0.00
2017-09-28T03:16:22.666Z,0.00
2017-09-28T03:17:22.665Z,0.00
2017-09-28T03:18:22.666Z,0.00
2017-09-28T03:19:22.666Z,0.00
2017-09-28T03:20:22.666Z,0.00
2017-09-28T03:21:22.665Z,0.00
2017-09-28T03:22:22.664Z,0.00
2017-09-28T03:23:22.665Z,0.00
2017-09-28T03:24:22.664Z,0.00
2017-09-28T03:25:22.664Z,0.00
2017-09-28T03:26:22.662Z,0.00
2017-09-28T03:27:22.668Z,0.00
2017-09-28T03:28:22.663Z,0.00
2017-09-28T03:29:22.662Z,0.00
2017-09-28T03:30:22.663Z,0.00
2017-09-28T03:31:22.662Z,0.00
2017-09-28T03:32:22.661Z,0.00
2017-09-28T03:33:22.668Z,0.00
2017-09-28T03:34:22.660Z,0.00
2017-09-28T03:35:22.661Z,0.00
2017-09-28T03:36:22.661Z,0.00
2017-09-28T03:37:22.660Z,0.00
2017-09-28T03:38:22.660Z,0.00
2017-09-28T03:39:22.665Z,0.00
2017-09-28T03:40:22.660Z,0.00
2017-09-28T03:41:22.659Z,0.00
2017-09-28T03:42:22.659Z,0.00
2017-09-28T03:43:22.659Z,0.00
2017-09-28T03:44:22.659Z,0.00
2017-09-28T03:45:22.658Z,0.00
2017-09-28T03:46:22.658Z,0.00
2017-09-28T03:47:22.659Z,0.00
2017-09-28T03:48:22.660Z,0.00
2017-09-28T03:49:22.659Z,0.00
2017-09-28T03:50:22.658Z,0.00
2017-09-28T03:51:22.659Z,0.00
2017-09-28T03:52:22.657Z,0.00
2017-09-28T03:53:22.657Z,0.00
2017-09-28T03:54:22.658Z,0.00
2017-09-28T03:55:22.657Z,0.00
2017-09-28T03:56:22.656Z,0.00
2017-09-28T03:57:22.657Z,0.00
2017-09-28T03:58:22.656Z,0.00
2017-09-28T03:59:22.657Z,0.00
2017-09-28T04:00:22.654Z,0.00
2017-09-28T04:01:22.660Z,0.00
2017-09-28T04:02:22.657Z,0.00
2017-09-28T04:03:22.656Z,0.00
2017-09-28T04:04:22.656Z,0.00
2017-09-28T04:05:22.656Z,0.00
2017-09-28T04:06:22.656Z,0.00
2017-09-28T04:07:22.656Z,0.00
2017-09-28T04:08:22.655Z,0.00
2017-09-28T04:09:22.653Z,0.00
2017-09-28T04:10:22.656Z,0.00
2017-09-28T04:11:22.655Z,0.00
2017-09-28T04:12:22.653Z,0.00
2017-09-28T04:13:22.655Z,0.00
2017-09-28T04:14:22.654Z,0.00
2017-09-28T04:15:22.655Z,0.00
2017-09-28T04:16:22.653Z,0.00
2017-09-28T04:17:22.655Z,0.00
2017-09-28T04:18:22.654Z,0.00
2017-09-28T04:19:22.654Z,0.00
2017-09-28T04:20:22.654Z,0.00
2017-09-28T04:21:22.653Z,0.00
2017-09-28T04:22:22.653Z,0.00
2017-09-28T04:23:22.654Z,0.00
2017-09-28T04:24:22.653Z,0.00
2017-09-28T04:25:22.654Z,0.00
2017-09-28T04:26:22.652Z,0.00
2017-09-28T04:27:22.653Z,0.00
2017-09-28T04:28:22.653Z,0.00
2017-09-28T04:29:22.652Z,0.00
2017-09-28T04:30:22.654Z,0.00
2017-09-28T04:31:22.652Z,0.00
2017-09-28T04:32:22.651Z,0.00
2017-09-28T04:33:22.653Z,0.00
2017-09-28T04:34:22.652Z,0.00
2017-09-28T04:35:22.653Z,0.00
2017-09-28T04:36:22.652Z,0.00
2017-09-28T04:37:22.652Z,0.00
2017-09-28T04:38:22.652Z,0.00
2017-09-28T04:39:22.653Z,0.00
2017-09-28T04:40:22.652Z,0.00
2017-09-28T04:41:22.658Z,0.00
2017-09-28T04:42:22.651Z,0.00
2017-09-28T04:43:22.652Z,0.00
2017-09-28T04:44:22.649Z,0.00
2017-09-28T04:45:22.650Z,0.00
2017-09-28T04:46:22.651Z,0.00
2017-09-28T04:47:22.652Z,0.00
2017-09-28T04:48:22.650Z,0.00
2017-09-28T04:49:22.650Z,0.00
2017-09-28T04:50:22.651Z,0.00
2017-09-28T04:51:22.650Z,0.00
2017-09-28T04:52:22.650Z,0.00
2017-09-28T04:53:22.652Z,0.00
2017-09-28T04:54:22.650Z,0.00
2017-09-28T04:55:22.650Z,0.00
2017-09-28T04:56:22.648Z,0.00
2017-09-28T04:57:22.649Z,0.00
2017-09-28T04:58:22.650Z,0.00
2017-09-28T04:59:22.650Z,0.00
2017-09-28T05:00:22.650Z,0.00
2017-09-28T05:01:22.650Z,0.00
2017-09-28T05:02:22.650Z,0.00
2017-09-28T05:03:22.649Z,4.00
2017-09-28T05:04:22.649Z,4.00
2017-09-28T05:05:22.649Z,4.00
2017-09-28T05:06:22.649Z,0.00
2017-09-28T05:07:22.649Z,4.00
2017-09-28T05:08:22.648Z,4.00
2017-09-28T05:09:22.650Z,4.00
2017-09-28T05:10:22.649Z,4.00
2017-09-28T05:11:22.649Z,8.00
2017-09-28T05:12:22.648Z,4.00
2017-09-28T05:13:22.649Z,8.00
2017-09-28T05:14:22.650Z,8.00
2017-09-28T05:15:22.650Z,12.00
2017-09-28T05:16:22.649Z,8.00
2017-09-28T05:17:22.650Z,12.00
2017-09-28T05:18:22.649Z,12.00
2017-09-28T05:19:22.650Z,16.00
2017-09-28T05:20:22.648Z,20.00
2017-09-28T05:21:22.649Z,20.00
2017-09-28T05:22:22.648Z,24.00
2017-09-28T05:23:22.648Z,24.00
2017-09-28T05:24:22.649Z,32.00
2017-09-28T05:25:22.648Z,32.00
2017-09-28T05:26:22.649Z,40.00
2017-09-28T05:27:22.649Z,44.00
2017-09-28T05:28:22.648Z,48.00
2017-09-28T05:29:22.653Z,56.00
2017-09-28T05:30:22.651Z,64.00
2017-09-28T05:31:22.652Z,64.00
2017-09-28T05:32:22.647Z,72.00
2017-09-28T05:33:22.648Z,76.00
2017-09-28T05:34:22.648Z,80.00
2017-09-28T05:35:22.648Z,84.00
2017-09-28T05:36:22.648Z,92.00
2017-09-28T05:37:22.649Z,96.00
2017-09-28T05:38:22.648Z,100.00
2017-09-28T05:39:22.648Z,104.00
2017-09-28T05:40:22.649Z,112.00
2017-09-28T05:41:22.648Z,116.00
2017-09-28T05:42:22.648Z,124.00
2017-09-28T05:43:22.654Z,132.00
2017-09-28T05:44:22.647Z,136.00
2017-09-28T05:45:22.653Z,152.00
2017-09-28T05:46:22.648Z,156.00
2017-09-28T05:47:22.649Z,172.00
2017-09-28T05:48:22.647Z,180.00
2017-09-28T05:49:22.648Z,192.00
2017-09-28T05:50:22.648Z,200.00
2017-09-28T05:51:22.648Z,208.00
2017-09-28T05:52:22.649Z,216.00
2017-09-28T05:53:22.648Z,224.00
2017-09-28T05:54:22.649Z,236.00
2017-09-28T05:55:22.649Z,248.00
2017-09-28T05:56:22.647Z,260.00
2017-09-28T05:57:22.649Z,276.00
2017-09-28T05:58:22.650Z,288.00
2017-09-28T05:59:22.648Z,304.00
2017-09-28T06:00:22.648Z,316.00
2017-09-28T06:01:22.651Z,332.00
2017-09-28T06:02:22.651Z,348.00
2017-09-28T06:03:22.650Z,368.00
2017-09-28T06:04:22.650Z,384.00
2017-09-28T06:05:22.650Z,396.00
2017-09-28T06:06:22.650Z,408.00
2017-09-28T06:07:22.651Z,424.00
2017-09-28T06:08:22.650Z,440.00
2017-09-28T06:09:22.651Z,464.00
2017-09-28T06:10:22.651Z,488.00
2017-09-28T06:11:22.651Z,512.00
2017-09-28T06:12:22.651Z,544.00
2017-09-28T06:13:22.651Z,580.00
2017-09-28T06:14:22.653Z,624.00
2017-09-28T06:15:22.654Z,668.00
2017-09-28T06:16:22.653Z,712.00
2017-09-28T06:17:22.653Z,752.00
2017-09-28T06:18:22.658Z,776.00
2017-09-28T06:19:22.653Z,788.00
2017-09-28T06:20:22.653Z,768.00
2017-09-28T06:21:22.654Z,732.00
2017-09-28T06:22:22.653Z,696.00
2017-09-28T06:23:22.654Z,676.00
2017-09-28T06:24:22.653Z,668.00
2017-09-28T06:25:22.654Z,676.00
2017-09-28T06:26:22.654Z,700.00
2017-09-28T06:27:22.655Z,724.00
2017-09-28T06:28:22.654Z,740.00
2017-09-28T06:29:22.656Z,740.00
2017-09-28T06:30:22.655Z,728.00
2017-09-28T06:31:22.656Z,700.00
2017-09-28T06:32:22.656Z,660.00
2017-09-28T06:33:22.657Z,628.00
2017-09-28T06:34:22.657Z,600.00
2017-09-28T06:35:22.657Z,584.00
2017-09-28T06:36:22.656Z,588.00
2017-09-28T06:37:22.657Z,604.00
2017-09-28T06:38:22.659Z,624.00
2017-09-28T06:39:22.659Z,640.00
2017-09-28T06:40:22.658Z,656.00
2017-09-28T06:41:22.659Z,668.00
2017-09-28T06:42:22.659Z,688.00
2017-09-28T06:43:22.660Z,712.00
2017-09-28T06:44:22.662Z,748.00
2017-09-28T06:45:22.661Z,788.00
2017-09-28T06:46:22.661Z,832.00
2017-09-28T06:47:22.661Z,876.00
2017-09-28T06:48:22.663Z,920.00
2017-09-28T06:49:22.662Z,952.00
2017-09-28T06:50:22.663Z,976.00
2017-09-28T06:51:22.665Z,1020.00
2017-09-28T06:52:22.663Z,1072.00
2017-09-28T06:53:22.666Z,1148.00
2017-09-28T06:54:22.666Z,1228.00
2017-09-28T06:55:22.667Z,1308.00
2017-09-28T06:56:22.665Z,1384.00
2017-09-28T06:57:22.669Z,1464.00
2017-09-28T06:58:22.667Z,1536.00
2017-09-28T06:59:22.668Z,1620.00
2017-09-28T07:00:22.669Z,1712.00
2017-09-28T07:01:22.670Z,1812.00
2017-09-28T07:02:22.670Z,1912.00
2017-09-28T07:03:22.670Z,2000.00
2017-09-28T07:04:22.673Z,2064.00
2017-09-28T07:05:22.672Z,2100.00
2017-09-28T07:06:22.671Z,2096.00
2017-09-28T07:07:22.673Z,2064.00
2017-09-28T07:08:22.672Z,2016.00
2017-09-28T07:09:22.674Z,1944.00
2017-09-28T07:10:22.675Z,1876.00
2017-09-28T07:11:22.676Z,1808.00
2017-09-28T07:12:22.676Z,1752.00
2017-09-28T07:13:22.677Z,1700.00
2017-09-28T07:14:22.680Z,1664.00
2017-09-28T07:15:22.685Z,1640.00
2017-09-28T07:16:22.679Z,1628.00
2017-09-28T07:17:22.679Z,1636.00
2017-09-28T07:18:22.682Z,1668.00
2017-09-28T07:19:22.683Z,1708.00
2017-09-28T07:20:22.683Z,1784.00
2017-09-28T07:21:22.685Z,1888.00
2017-09-28T07:22:22.685Z,2024.00
2017-09-28T07:23:22.687Z,2172.00
2017-09-28T07:24:22.687Z,2308.00
2017-09-28T07:25:22.692Z,2412.00
2017-09-28T07:26:22.688Z,2496.00
2017-09-28T07:27:22.691Z,2564.00
2017-09-28T07:28:22.690Z,2628.00
2017-09-28T07:29:22.693Z,2688.00
2017-09-28T07:30:22.693Z,2736.00
2017-09-28T07:31:22.696Z,2772.00
2017-09-28T07:32:22.696Z,2768.00
2017-09-28T07:33:22.697Z,2748.00
2017-09-28T07:34:22.697Z,2744.00
2017-09-28T07:35:22.699Z,2812.00
2017-09-28T07:36:22.701Z,2952.00
2017-09-28T07:37:22.700Z,3152.00
2017-09-28T07:38:22.701Z,3404.00
2017-09-28T07:39:22.704Z,3704.00
2017-09-28T07:40:22.703Z,3972.00
2017-09-28T07:41:22.706Z,4172.00
2017-09-28T07:42:22.708Z,4304.00
2017-09-28T07:43:22.707Z,4380.00
2017-09-28T07:44:22.708Z,4376.00
2017-09-28T07:45:22.710Z,4284.00
2017-09-28T07:46:22.712Z,4092.00
2017-09-28T07:47:22.715Z,3812.00
2017-09-28T07:48:22.715Z,3500.00
2017-09-28T07:49:22.718Z,3192.00
2017-09-28T07:50:22.719Z,2912.00
2017-09-28T07:51:22.721Z,2660.00
2017-09-28T07:52:22.720Z,2452.00
2017-09-28T07:53:22.723Z,2284.00
2017-09-28T07:54:22.723Z,2156.00
2017-09-28T07:55:22.726Z,2080.00
2017-09-28T07:56:22.726Z,2048.00
2017-09-28T07:57:22.729Z,2052.00
2017-09-28T07:58:22.730Z,2096.00
2017-09-28T07:59:22.733Z,2160.00
2017-09-28T08:00:22.732Z,2232.00
2017-09-28T08:01:22.734Z,2296.00
2017-09-28T08:02:22.736Z,2352.00
2017-09-28T08:03:22.739Z,2396.00
2017-09-28T08:04:22.739Z,2444.00
2017-09-28T08:05:22.742Z,2496.00
2017-09-28T08:06:22.743Z,2564.00
2017-09-28T08:07:22.744Z,2636.00
2017-09-28T08:08:22.745Z,2720.00
2017-09-28T08:09:22.749Z,2804.00
2017-09-28T08:10:22.749Z,2888.00
2017-09-28T08:11:22.751Z,2972.00
2017-09-28T08:12:22.752Z,3040.00
2017-09-28T08:13:22.753Z,3108.00
2017-09-28T08:14:22.755Z,3168.00
2017-09-28T08:15:22.757Z,3232.00
2017-09-28T08:16:22.757Z,3268.00
2017-09-28T08:17:22.759Z,3268.00
2017-09-28T08:18:22.761Z,3252.00
2017-09-28T08:19:22.764Z,3240.00
2017-09-28T08:20:22.765Z,3232.00
2017-09-28T08:21:22.765Z,3244.00
2017-09-28T08:22:22.768Z,3276.00
2017-09-28T08:23:22.770Z,3352.00
2017-09-28T08:24:22.770Z,3488.00
2017-09-28T08:25:22.771Z,3680.00
2017-09-28T08:26:22.775Z,3948.00
2017-09-28T08:27:22.776Z,4244.00
2017-09-28T08:28:22.777Z,4552.00
2017-09-28T08:29:22.778Z,4796.00
2017-09-28T08:30:22.781Z,4952.00
2017-09-28T08:31:22.783Z,5016.00
2017-09-28T08:32:22.784Z,5052.00
2017-09-28T08:33:22.785Z,5116.00
2017-09-28T08:34:22.788Z,5228.00
2017-09-28T08:35:22.791Z,5404.00
2017-09-28T08:36:22.791Z,5576.00
2017-09-28T08:37:22.793Z,5716.00
2017-09-28T08:38:22.796Z,5876.00
2017-09-28T08:39:22.796Z,6120.00
2017-09-28T08:40:22.800Z,6556.00
2017-09-28T08:41:22.800Z,7152.00
2017-09-28T08:42:22.803Z,7740.00
2017-09-28T08:43:22.806Z,8192.00
2017-09-28T08:44:22.808Z,8444.00
2017-09-28T08:45:22.811Z,8688.00
2017-09-28T08:46:22.813Z,9032.00
2017-09-28T08:47:22.816Z,9312.00
2017-09-28T08:48:22.815Z,9316.00
2017-09-28T08:49:22.818Z,8964.00
2017-09-28T08:50:22.821Z,8368.00
2017-09-28T08:51:22.825Z,7596.00
2017-09-28T08:52:22.826Z,7080.00
2017-09-28T08:53:22.829Z,6736.00
2017-09-28T08:54:22.831Z,6544.00
2017-09-28T08:55:22.835Z,6252.00
2017-09-28T08:56:22.837Z,5808.00
2017-09-28T08:57:22.839Z,5412.00
2017-09-28T08:58:22.842Z,5104.00
2017-09-28T08:59:22.845Z,4860.00
2017-09-28T09:00:22.849Z,4776.00
2017-09-28T09:01:22.853Z,4696.00
2017-09-28T09:02:22.857Z,4588.00
2017-09-28T09:03:22.857Z,4380.00
2017-09-28T09:04:22.861Z,4220.00
2017-09-28T09:05:22.864Z,4052.00
2017-09-28T09:06:22.871Z,3900.00
2017-09-28T09:07:22.870Z,3776.00
2017-09-28T09:08:22.872Z,3620.00
2017-09-28T09:09:22.875Z,3452.00
2017-09-28T09:10:22.879Z,3316.00
2017-09-28T09:11:22.882Z,3244.00
2017-09-28T09:12:22.885Z,3264.00
2017-09-28T09:13:22.887Z,3336.00
2017-09-28T09:14:22.891Z,3404.00
2017-09-28T09:15:22.893Z,3464.00
2017-09-28T09:16:22.896Z,3516.00
2017-09-28T09:17:22.900Z,3588.00
2017-09-28T09:18:22.903Z,3692.00
2017-09-28T09:19:22.906Z,3836.00
2017-09-28T09:20:22.908Z,3992.00
2017-09-28T09:21:22.911Z,4144.00
2017-09-28T09:22:22.915Z,4304.00
2017-09-28T09:23:22.920Z,4496.00
2017-09-28T09:24:22.921Z,4708.00
2017-09-28T09:25:22.923Z,4764.00
2017-09-28T09:26:22.933Z,4688.00
2017-09-28T09:27:22.931Z,4548.00
2017-09-28T09:28:22.932Z,4440.00
2017-09-28T09:29:22.935Z,4428.00
2017-09-28T09:30:22.940Z,4476.00
2017-09-28T09:31:22.942Z,4496.00
2017-09-28T09:32:22.944Z,4464.00
2017-09-28T09:33:22.946Z,4404.00
2017-09-28T09:34:22.950Z,4348.00
2017-09-28T09:35:22.954Z,4308.00
2017-09-28T09:36:22.957Z,4240.00
2017-09-28T09:37:22.961Z,4140.00
2017-09-28T09:38:22.963Z,4036.00
2017-09-28T09:39:22.966Z,3936.00
2017-09-28T09:40:22.970Z,3848.00
2017-09-28T09:41:22.972Z,3760.00
2017-09-28T09:42:22.976Z,3668.00
2017-09-28T09:43:22.980Z,3588.00
2017-09-28T09:44:22.982Z,3536.00
2017-09-28T09:45:22.985Z,3544.00
2017-09-28T09:46:22.989Z,3564.00
2017-09-28T09:47:22.992Z,3556.00
2017-09-28T09:48:22.993Z,3528.00
2017-09-28T09:49:22.997Z,3492.00
2017-09-28T09:50:23.001Z,3520.00
2017-09-28T09:51:23.005Z,3616.00
2017-09-28T09:52:23.007Z,3752.00
2017-09-28T09:53:23.011Z,3884.00
2017-09-28T09:54:23.014Z,3964.00
2017-09-28T09:55:23.017Z,4012.00
2017-09-28T09:56:23.056Z,4052.00
2017-09-28T09:57:23.023Z,4080.00
2017-09-28T09:58:23.025Z,4088.00
2017-09-28T09:59:23.029Z,4076.00
2017-09-28T10:00:23.031Z,4056.00
2017-09-28T10:01:23.067Z,4020.00
2017-09-28T10:02:23.038Z,3980.00
2017-09-28T10:03:23.042Z,3956.00
2017-09-28T10:04:23.044Z,3940.00
2017-09-28T10:05:23.046Z,3936.00
2017-09-28T10:06:23.052Z,3884.00
2017-09-28T10:07:23.054Z,3804.00
2017-09-28T10:08:23.057Z,3692.00
2017-09-28T10:09:23.061Z,3604.00
2017-09-28T10:10:23.064Z,3564.00
2017-09-28T10:11:23.068Z,3520.00
2017-09-28T10:12:23.070Z,3468.00
2017-09-28T10:13:23.072Z,3448.00
2017-09-28T10:14:23.077Z,3448.00
2017-09-28T10:15:23.080Z,3460.00
2017-09-28T10:16:23.082Z,3500.00
2017-09-28T10:17:23.085Z,3584.00
2017-09-28T10:18:23.089Z,3676.00
2017-09-28T10:19:23.093Z,3776.00
2017-09-28T10:20:23.096Z,3856.00
2017-09-28T10:21:23.099Z,3888.00
2017-09-28T10:22:23.103Z,3908.00
2017-09-28T10:23:23.111Z,3944.00
2017-09-28T10:24:23.106Z,4000.00
2017-09-28T10:25:23.111Z,4104.00
2017-09-28T10:26:23.114Z,4264.00
2017-09-28T10:27:23.117Z,4408.00
2017-09-28T10:28:23.121Z,4520.00
2017-09-28T10:29:23.123Z,4660.00
2017-09-28T10:30:23.127Z,4896.00
2017-09-28T10:31:23.130Z,5076.00
2017-09-28T10:32:23.135Z,5188.00
2017-09-28T10:33:23.136Z,5308.00
2017-09-28T10:34:23.140Z,5480.00
2017-09-28T10:35:23.143Z,5664.00
2017-09-28T10:36:23.146Z,5796.00
2017-09-28T10:37:23.150Z,5832.00
2017-09-28T10:38:23.159Z,5824.00
2017-09-28T10:39:23.157Z,5808.00
2017-09-28T10:40:23.159Z,5820.00
2017-09-28T10:41:23.167Z,5780.00
2017-09-28T10:42:23.167Z,5676.00
2017-09-28T10:43:23.171Z,5556.00
2017-09-28T10:44:23.173Z,5428.00
2017-09-28T10:45:23.177Z,5324.00
2017-09-28T10:46:23.180Z,5268.00
2017-09-28T10:47:23.185Z,5264.00
2017-09-28T10:48:23.186Z,5296.00
2017-09-28T10:49:23.190Z,5236.00
2017-09-28T10:50:23.193Z,5100.00
2017-09-28T10:51:23.198Z,4884.00
2017-09-28T10:52:23.203Z,4712.00
2017-09-28T10:53:23.204Z,4608.00
2017-09-28T10:54:23.209Z,4556.00
2017-09-28T10:55:23.212Z,4556.00
2017-09-28T10:56:23.214Z,4624.00
2017-09-28T10:57:23.219Z,4748.00
2017-09-28T10:58:23.221Z,4904.00
2017-09-28T10:59:23.227Z,5084.00
2017-09-28T11:00:23.229Z,5304.00
2017-09-28T11:01:23.232Z,5588.00
2017-09-28T11:02:23.239Z,5856.00
2017-09-28T11:03:23.241Z,6088.00
2017-09-28T11:04:23.244Z,6280.00
2017-09-28T11:05:23.247Z,6380.00
2017-09-28T11:06:23.255Z,6380.00
2017-09-28T11:07:23.255Z,6384.00
2017-09-28T11:08:23.259Z,6380.00
2017-09-28T11:09:23.267Z,6420.00
2017-09-28T11:10:23.268Z,6572.00
2017-09-28T11:11:23.270Z,6864.00
2017-09-28T11:12:23.273Z,6924.00
2017-09-28T11:13:23.293Z,6896.00
2017-09-28T11:14:23.281Z,6708.00
2017-09-28T11:15:23.285Z,6540.00
2017-09-28T11:16:23.287Z,6408.00
2017-09-28T11:17:23.292Z,6320.00
2017-09-28T11:18:23.296Z,6328.00
2017-09-28T11:19:23.300Z,6480.00
2017-09-28T11:20:23.304Z,6860.00
2017-09-28T11:21:23.307Z,7340.00
2017-09-28T11:22:23.312Z,7768.00
2017-09-28T11:23:23.316Z,8020.00
2017-09-28T11:24:23.318Z,8396.00
2017-09-28T11:25:23.324Z,8412.00
2017-09-28T11:26:23.327Z,8216.00
2017-09-28T11:27:23.331Z,7628.00
2017-09-28T11:28:23.336Z,6740.00
2017-09-28T11:29:23.339Z,6016.00
2017-09-28T11:30:23.344Z,5560.00
2017-09-28T11:31:23.348Z,5208.00
2017-09-28T11:32:23.351Z,4916.00
2017-09-28T11:33:23.355Z,4608.00
2017-09-28T11:34:23.361Z,4328.00
2017-09-28T11:35:23.364Z,4132.00
2017-09-28T11:36:23.369Z,4052.00
2017-09-28T11:37:23.372Z,3996.00
2017-09-28T11:38:23.377Z,3928.00
2017-09-28T11:39:23.382Z,3780.00
2017-09-28T11:40:23.383Z,3552.00
2017-09-28T11:41:23.387Z,3320.00
2017-09-28T11:42:23.394Z,3100.00
2017-09-28T11:43:23.395Z,2856.00
2017-09-28T11:44:23.400Z,2556.00
2017-09-28T11:45:23.403Z,2296.00
2017-09-28T11:46:23.408Z,2120.00
2017-09-28T11:47:23.413Z,1940.00
2017-09-28T11:48:23.414Z,1812.00
2017-09-28T11:49:23.419Z,1780.00
2017-09-28T11:50:23.425Z,1752.00
2017-09-28T11:51:23.425Z,1668.00
2017-09-28T11:52:23.429Z,1508.00
2017-09-28T11:53:23.432Z,1348.00
2017-09-28T11:54:23.438Z,1244.00
2017-09-28T11:55:23.474Z,1240.00
2017-09-28T11:56:23.444Z,1304.00
2017-09-28T11:57:23.451Z,1284.00
2017-09-28T11:58:23.453Z,1160.00
2017-09-28T11:59:23.455Z,984.00
2017-09-28T12:00:23.459Z,836.00
2017-09-28T12:01:23.464Z,788.00
2017-09-28T12:02:23.466Z,832.00
2017-09-28T12:03:23.470Z,948.00
2017-09-28T12:04:23.473Z,1108.00
2017-09-28T12:05:23.477Z,1228.00
2017-09-28T12:06:23.481Z,1340.00
2017-09-28T12:07:23.483Z,1512.00
2017-09-28T12:08:23.487Z,1764.00
2017-09-28T12:09:23.490Z,1992.00
2017-09-28T12:10:23.494Z,2252.00
2017-09-28T12:11:23.497Z,2600.00
2017-09-28T12:12:23.501Z,3080.00
2017-09-28T12:13:23.503Z,3784.00
2017-09-28T12:14:23.507Z,4776.00
2017-09-28T12:15:23.510Z,5728.00
2017-09-28T12:16:23.513Z,6428.00
2017-09-28T12:17:23.518Z,7112.00
2017-09-28T12:18:23.522Z,7488.00
2017-09-28T12:19:23.527Z,7692.00
2017-09-28T12:20:23.528Z,7892.00
2017-09-28T12:21:23.531Z,8256.00
2017-09-28T12:22:23.536Z,8492.00
2017-09-28T12:23:23.541Z,8516.00
2017-09-28T12:24:23.542Z,8180.00
2017-09-28T12:25:23.576Z,7684.00
2017-09-28T12:26:23.550Z,7120.00
2017-09-28T12:27:23.553Z,6644.00
2017-09-28T12:28:23.556Z,6116.00
2017-09-28T12:29:23.561Z,5564.00
2017-09-28T12:30:23.564Z,5084.00
2017-09-28T12:31:23.571Z,4696.00
2017-09-28T12:32:23.571Z,4388.00
2017-09-28T12:33:23.580Z,4264.00
2017-09-28T12:34:23.578Z,4248.00
2017-09-28T12:35:23.584Z,3912.00
2017-09-28T12:36:23.586Z,3316.00
2017-09-28T12:37:23.591Z,2664.00
2017-09-28T12:38:23.594Z,2224.00